sensor_id;sensor_type;location;lat;lon;timestamp;temperature;humidity
33741;DHT22;20065;48.380;10.892;2022-09-03T00:01:36;16.20;99.90
33741;DHT22;20065;48.380;10.892;2022-09-03T00:04:46;16.10;99.90
33741;DHT22;20065;48.380;10.892;2022-09-03T00:07:42;16.10;99.90
33741;DHT22;20065;48.380;10.892;2022-09-03T00:16:28;16.10;99.90
33741;DHT22;20065;48.380;10.892;2022-09-03T00:19:19;16.10;99.90
33741;DHT22;20065;48.380;10.892;2022-09-03T00:22:35;16.00;99.90
33741;DHT22;20065;48.380;10.892;2022-09-03T00:25:26;16.00;99.90
33741;DHT22;20065;48.380;10.892;2022-09-03T00:28:22;16.00;99.90
33741;DHT22;20065;48.380;10.892;2022-09-03T00:31:17;15.90;99.90
33741;DHT22;20065;48.380;10.892;2022-09-03T00:34:51;16.00;99.90
33741;DHT22;20065;48.380;10.892;2022-09-03T00:37:18;16.00;99.90
33741;DHT22;20065;48.380;10.892;2022-09-03T00:40:05;16.10;99.90
33741;DHT22;20065;48.380;10.892;2022-09-03T00:43:23;16.00;99.90
33741;DHT22;20065;48.380;10.892;2022-09-03T00:46:18;16.00;99.90
33741;DHT22;20065;48.380;10.892;2022-09-03T00:49:33;15.90;99.90
33741;DHT22;20065;48.380;10.892;2022-09-03T00:55:35;15.60;99.90
33741;DHT22;20065;48.380;10.892;2022-09-03T01:01:51;15.70;99.90
33741;DHT22;20065;48.380;10.892;2022-09-03T01:04:55;15.80;99.90
33741;DHT22;20065;48.380;10.892;2022-09-03T01:07:53;15.70;99.90
33741;DHT22;20065;48.380;10.892;2022-09-03T01:10:44;15.70;99.90
33741;DHT22;20065;48.380;10.892;2022-09-03T01:14:01;15.60;99.90
33741;DHT22;20065;48.380;10.892;2022-09-03T01:17:16;15.60;99.90
33741;DHT22;20065;48.380;10.892;2022-09-03T01:26:47;15.40;99.90
33741;DHT22;20065;48.380;10.892;2022-09-03T01:36:17;15.00;99.90
33741;DHT22;20065;48.380;10.892;2022-09-03T01:39:16;15.00;99.90
33741;DHT22;20065;48.380;10.892;2022-09-03T02:00:18;15.00;99.90
33741;DHT22;20065;48.380;10.892;2022-09-03T02:03:09;14.90;99.90
33741;DHT22;20065;48.380;10.892;2022-09-03T02:05:56;15.00;99.90
33741;DHT22;20065;48.380;10.892;2022-09-03T02:08:42;15.00;99.90
33741;DHT22;20065;48.380;10.892;2022-09-03T02:11:28;15.00;99.90
33741;DHT22;20065;48.380;10.892;2022-09-03T02:14:14;14.90;99.90
33741;DHT22;20065;48.380;10.892;2022-09-03T02:17:01;14.90;99.90
33741;DHT22;20065;48.380;10.892;2022-09-03T02:19:47;15.30;99.90
33741;DHT22;20065;48.380;10.892;2022-09-03T02:22:34;14.90;99.90
33741;DHT22;20065;48.380;10.892;2022-09-03T02:25:23;14.90;99.90
33741;DHT22;20065;48.380;10.892;2022-09-03T02:28:12;14.90;99.90
33741;DHT22;20065;48.380;10.892;2022-09-03T02:30:59;14.80;99.90
33741;DHT22;20065;48.380;10.892;2022-09-03T02:33:47;14.60;99.90
33741;DHT22;20065;48.380;10.892;2022-09-03T02:36:37;14.50;99.90
33741;DHT22;20065;48.380;10.892;2022-09-03T02:39:24;14.60;99.90
33741;DHT22;20065;48.380;10.892;2022-09-03T02:42:13;14.60;99.90
33741;DHT22;20065;48.380;10.892;2022-09-03T02:45:09;14.70;99.90
33741;DHT22;20065;48.380;10.892;2022-09-03T02:47:59;14.40;99.90
33741;DHT22;20065;48.380;10.892;2022-09-03T02:50:45;14.40;99.90
33741;DHT22;20065;48.380;10.892;2022-09-03T02:53:31;14.60;99.90
33741;DHT22;20065;48.380;10.892;2022-09-03T02:56:17;14.60;99.90
33741;DHT22;20065;48.380;10.892;2022-09-03T02:59:05;14.60;99.90
33741;DHT22;20065;48.380;10.892;2022-09-03T03:01:52;14.60;99.90
33741;DHT22;20065;48.380;10.892;2022-09-03T03:04:39;14.60;99.90
33741;DHT22;20065;48.380;10.892;2022-09-03T03:07:25;14.50;99.90
33741;DHT22;20065;48.380;10.892;2022-09-03T03:10:12;14.50;99.90
33741;DHT22;20065;48.380;10.892;2022-09-03T03:12:58;14.50;99.90
33741;DHT22;20065;48.380;10.892;2022-09-03T03:15:44;14.40;99.90
33741;DHT22;20065;48.380;10.892;2022-09-03T03:18:32;14.40;99.90
33741;DHT22;20065;48.380;10.892;2022-09-03T03:21:19;14.40;99.90
33741;DHT22;20065;48.380;10.892;2022-09-03T03:24:06;14.40;99.90
33741;DHT22;20065;48.380;10.892;2022-09-03T03:26:55;14.30;99.90
33741;DHT22;20065;48.380;10.892;2022-09-03T03:29:43;14.30;99.90
33741;DHT22;20065;48.380;10.892;2022-09-03T03:32:29;14.20;99.90
33741;DHT22;20065;48.380;10.892;2022-09-03T03:35:15;14.40;99.90
33741;DHT22;20065;48.380;10.892;2022-09-03T03:38:01;14.40;99.90
33741;DHT22;20065;48.380;10.892;2022-09-03T03:40:47;14.30;99.90
33741;DHT22;20065;48.380;10.892;2022-09-03T03:43:33;14.30;99.90
33741;DHT22;20065;48.380;10.892;2022-09-03T03:46:23;14.30;99.90
33741;DHT22;20065;48.380;10.892;2022-09-03T03:49:10;14.40;99.90
33741;DHT22;20065;48.380;10.892;2022-09-03T03:51:56;14.50;99.90
33741;DHT22;20065;48.380;10.892;2022-09-03T03:54:42;14.40;99.90
33741;DHT22;20065;48.380;10.892;2022-09-03T03:57:29;14.40;99.90
33741;DHT22;20065;48.380;10.892;2022-09-03T04:00:17;14.40;99.90
33741;DHT22;20065;48.380;10.892;2022-09-03T04:03:03;14.40;99.90
33741;DHT22;20065;48.380;10.892;2022-09-03T04:05:57;14.40;99.90
33741;DHT22;20065;48.380;10.892;2022-09-03T04:08:46;14.40;99.90
33741;DHT22;20065;48.380;10.892;2022-09-03T04:11:32;14.40;99.90
33741;DHT22;20065;48.380;10.892;2022-09-03T04:14:18;14.50;99.90
33741;DHT22;20065;48.380;10.892;2022-09-03T04:17:04;14.40;99.90
33741;DHT22;20065;48.380;10.892;2022-09-03T04:19:51;14.50;99.90
33741;DHT22;20065;48.380;10.892;2022-09-03T04:22:37;14.50;99.90
33741;DHT22;20065;48.380;10.892;2022-09-03T04:25:23;14.60;99.90
33741;DHT22;20065;48.380;10.892;2022-09-03T04:28:09;14.50;99.90
33741;DHT22;20065;48.380;10.892;2022-09-03T04:31:00;14.40;99.90
33741;DHT22;20065;48.380;10.892;2022-09-03T04:33:47;14.60;99.90
33741;DHT22;20065;48.380;10.892;2022-09-03T04:36:34;14.60;99.90
33741;DHT22;20065;48.380;10.892;2022-09-03T04:39:20;14.60;99.90
33741;DHT22;20065;48.380;10.892;2022-09-03T04:42:06;14.20;99.90
33741;DHT22;20065;48.380;10.892;2022-09-03T04:44:52;14.30;99.90
33741;DHT22;20065;48.380;10.892;2022-09-03T04:47:38;14.30;99.90
33741;DHT22;20065;48.380;10.892;2022-09-03T04:50:24;14.40;99.90
33741;DHT22;20065;48.380;10.892;2022-09-03T04:53:17;14.30;99.90
33741;DHT22;20065;48.380;10.892;2022-09-03T04:56:15;14.40;99.90
33741;DHT22;20065;48.380;10.892;2022-09-03T04:59:04;14.40;99.90
33741;DHT22;20065;48.380;10.892;2022-09-03T05:01:50;14.40;99.90
33741;DHT22;20065;48.380;10.892;2022-09-03T05:04:37;14.60;99.90
33741;DHT22;20065;48.380;10.892;2022-09-03T05:07:23;14.60;99.90
33741;DHT22;20065;48.380;10.892;2022-09-03T05:10:13;14.60;99.90
33741;DHT22;20065;48.380;10.892;2022-09-03T05:13:05;14.70;99.90
33741;DHT22;20065;48.380;10.892;2022-09-03T05:15:51;14.60;99.90
33741;DHT22;20065;48.380;10.892;2022-09-03T05:18:37;14.60;99.90
33741;DHT22;20065;48.380;10.892;2022-09-03T05:21:24;14.70;99.90
33741;DHT22;20065;48.380;10.892;2022-09-03T05:24:10;14.80;99.90
33741;DHT22;20065;48.380;10.892;2022-09-03T05:26:56;14.70;99.90
33741;DHT22;20065;48.380;10.892;2022-09-03T05:29:43;14.70;99.90
33741;DHT22;20065;48.380;10.892;2022-09-03T05:32:30;14.70;99.90
33741;DHT22;20065;48.380;10.892;2022-09-03T05:35:17;14.80;99.90
33741;DHT22;20065;48.380;10.892;2022-09-03T05:38:03;14.80;99.90
33741;DHT22;20065;48.380;10.892;2022-09-03T05:40:51;14.80;99.90
33741;DHT22;20065;48.380;10.892;2022-09-03T05:43:37;14.80;99.90
33741;DHT22;20065;48.380;10.892;2022-09-03T05:46:26;15.00;99.90
33741;DHT22;20065;48.380;10.892;2022-09-03T05:49:16;15.00;99.90
33741;DHT22;20065;48.380;10.892;2022-09-03T05:52:02;15.00;99.90
33741;DHT22;20065;48.380;10.892;2022-09-03T05:54:48;15.10;99.90
33741;DHT22;20065;48.380;10.892;2022-09-03T05:57:34;14.80;99.90
33741;DHT22;20065;48.380;10.892;2022-09-03T06:00:21;14.60;99.90
33741;DHT22;20065;48.380;10.892;2022-09-03T06:03:07;14.20;99.90
33741;DHT22;20065;48.380;10.892;2022-09-03T06:05:53;13.70;99.90
33741;DHT22;20065;48.380;10.892;2022-09-03T06:08:40;13.50;99.90
33741;DHT22;20065;48.380;10.892;2022-09-03T06:11:27;13.40;99.90
33741;DHT22;20065;48.380;10.892;2022-09-03T06:14:14;13.30;99.90
33741;DHT22;20065;48.380;10.892;2022-09-03T06:17:01;13.30;99.90
33741;DHT22;20065;48.380;10.892;2022-09-03T06:19:47;13.30;99.90
33741;DHT22;20065;48.380;10.892;2022-09-03T06:22:33;13.30;99.90
33741;DHT22;20065;48.380;10.892;2022-09-03T06:25:20;13.50;99.90
33741;DHT22;20065;48.380;10.892;2022-09-03T06:28:06;13.30;99.90
33741;DHT22;20065;48.380;10.892;2022-09-03T06:30:57;13.30;99.90
33741;DHT22;20065;48.380;10.892;2022-09-03T06:33:44;13.30;99.90
33741;DHT22;20065;48.380;10.892;2022-09-03T06:36:31;13.40;99.90
33741;DHT22;20065;48.380;10.892;2022-09-03T06:39:17;13.20;99.90
33741;DHT22;20065;48.380;10.892;2022-09-03T06:42:03;13.20;99.90
33741;DHT22;20065;48.380;10.892;2022-09-03T06:44:54;13.20;99.90
33741;DHT22;20065;48.380;10.892;2022-09-03T06:47:42;13.30;99.90
33741;DHT22;20065;48.380;10.892;2022-09-03T06:50:28;13.30;99.90
33741;DHT22;20065;48.380;10.892;2022-09-03T06:53:14;13.30;99.90
33741;DHT22;20065;48.380;10.892;2022-09-03T06:56:03;13.40;99.90
33741;DHT22;20065;48.380;10.892;2022-09-03T06:58:50;13.40;99.90
33741;DHT22;20065;48.380;10.892;2022-09-03T07:01:36;13.50;99.90
33741;DHT22;20065;48.380;10.892;2022-09-03T07:04:25;13.70;99.90
33741;DHT22;20065;48.380;10.892;2022-09-03T07:07:12;13.70;99.90
33741;DHT22;20065;48.380;10.892;2022-09-03T07:09:58;13.60;99.90
33741;DHT22;20065;48.380;10.892;2022-09-03T07:12:46;13.40;99.90
33741;DHT22;20065;48.380;10.892;2022-09-03T07:15:32;13.40;99.90
33741;DHT22;20065;48.380;10.892;2022-09-03T07:18:18;13.30;99.90
33741;DHT22;20065;48.380;10.892;2022-09-03T07:21:11;13.50;99.90
33741;DHT22;20065;48.380;10.892;2022-09-03T07:23:57;13.50;99.90
33741;DHT22;20065;48.380;10.892;2022-09-03T07:26:43;13.50;99.90
33741;DHT22;20065;48.380;10.892;2022-09-03T07:29:31;13.50;99.90
33741;DHT22;20065;48.380;10.892;2022-09-03T07:32:17;13.70;99.90
33741;DHT22;20065;48.380;10.892;2022-09-03T07:35:03;13.80;99.90
33741;DHT22;20065;48.380;10.892;2022-09-03T07:37:50;13.90;99.90
33741;DHT22;20065;48.380;10.892;2022-09-03T07:40:36;14.30;99.90
33741;DHT22;20065;48.380;10.892;2022-09-03T07:43:27;14.40;99.90
33741;DHT22;20065;48.380;10.892;2022-09-03T07:46:16;14.70;99.90
33741;DHT22;20065;48.380;10.892;2022-09-03T07:49:07;14.80;99.90
33741;DHT22;20065;48.380;10.892;2022-09-03T07:51:54;14.90;99.90
33741;DHT22;20065;48.380;10.892;2022-09-03T07:54:40;15.00;99.90
33741;DHT22;20065;48.380;10.892;2022-09-03T07:57:26;15.00;99.90
33741;DHT22;20065;48.380;10.892;2022-09-03T08:00:13;14.90;99.90
33741;DHT22;20065;48.380;10.892;2022-09-03T08:02:59;15.10;99.90
33741;DHT22;20065;48.380;10.892;2022-09-03T08:05:53;15.30;99.90
33741;DHT22;20065;48.380;10.892;2022-09-03T08:08:41;15.60;99.90
33741;DHT22;20065;48.380;10.892;2022-09-03T08:11:30;15.70;99.90
33741;DHT22;20065;48.380;10.892;2022-09-03T08:14:16;15.70;99.90
33741;DHT22;20065;48.380;10.892;2022-09-03T08:17:02;15.70;99.90
33741;DHT22;20065;48.380;10.892;2022-09-03T08:19:48;15.90;99.90
33741;DHT22;20065;48.380;10.892;2022-09-03T08:22:35;16.10;99.90
33741;DHT22;20065;48.380;10.892;2022-09-03T08:25:22;16.30;99.90
33741;DHT22;20065;48.380;10.892;2022-09-03T08:28:08;16.50;99.90
33741;DHT22;20065;48.380;10.892;2022-09-03T08:30:54;16.30;99.90
33741;DHT22;20065;48.380;10.892;2022-09-03T08:33:48;16.50;99.90
33741;DHT22;20065;48.380;10.892;2022-09-03T08:36:37;16.60;99.90
33741;DHT22;20065;48.380;10.892;2022-09-03T08:39:24;17.00;99.90
33741;DHT22;20065;48.380;10.892;2022-09-03T08:42:37;17.00;99.90
33741;DHT22;20065;48.380;10.892;2022-09-03T08:45:27;17.00;99.90
33741;DHT22;20065;48.380;10.892;2022-09-03T08:48:20;17.30;99.90
33741;DHT22;20065;48.380;10.892;2022-09-03T08:51:09;17.40;99.90
33741;DHT22;20065;48.380;10.892;2022-09-03T08:53:57;17.40;99.90
33741;DHT22;20065;48.380;10.892;2022-09-03T08:56:47;17.30;99.90
33741;DHT22;20065;48.380;10.892;2022-09-03T08:59:33;17.50;99.90
33741;DHT22;20065;48.380;10.892;2022-09-03T09:02:42;17.50;99.90
33741;DHT22;20065;48.380;10.892;2022-09-03T09:05:57;17.60;99.90
33741;DHT22;20065;48.380;10.892;2022-09-03T09:18:15;18.00;99.90
33741;DHT22;20065;48.380;10.892;2022-09-03T09:21:14;18.40;99.90
33741;DHT22;20065;48.380;10.892;2022-09-03T09:24:05;18.70;99.90
33741;DHT22;20065;48.380;10.892;2022-09-03T09:27:03;18.70;99.90
33741;DHT22;20065;48.380;10.892;2022-09-03T09:29:50;18.80;99.90
33741;DHT22;20065;48.380;10.892;2022-09-03T09:32:38;18.60;99.90
33741;DHT22;20065;48.380;10.892;2022-09-03T09:35:24;19.00;99.90
33741;DHT22;20065;48.380;10.892;2022-09-03T09:38:10;19.20;99.90
33741;DHT22;20065;48.380;10.892;2022-09-03T09:41:11;19.40;99.90
33741;DHT22;20065;48.380;10.892;2022-09-03T09:44:01;19.20;99.90
33741;DHT22;20065;48.380;10.892;2022-09-03T09:46:48;18.80;99.90
33741;DHT22;20065;48.380;10.892;2022-09-03T09:49:37;18.70;99.90
33741;DHT22;20065;48.380;10.892;2022-09-03T09:52:29;18.70;99.90
33741;DHT22;20065;48.380;10.892;2022-09-03T09:55:18;18.60;99.90
33741;DHT22;20065;48.380;10.892;2022-09-03T09:58:09;18.60;99.90
33741;DHT22;20065;48.380;10.892;2022-09-03T10:01:02;18.70;99.90
33741;DHT22;20065;48.380;10.892;2022-09-03T10:03:55;19.00;99.90
33741;DHT22;20065;48.380;10.892;2022-09-03T10:06:42;19.30;99.90
33741;DHT22;20065;48.380;10.892;2022-09-03T10:09:44;19.60;99.90
33741;DHT22;20065;48.380;10.892;2022-09-03T10:12:37;19.20;99.90
33741;DHT22;20065;48.380;10.892;2022-09-03T10:15:34;19.00;99.90
33741;DHT22;20065;48.380;10.892;2022-09-03T10:22:28;18.80;99.90
33741;DHT22;20065;48.380;10.892;2022-09-03T10:25:15;18.80;99.90
33741;DHT22;20065;48.380;10.892;2022-09-03T10:28:02;18.80;99.90
33741;DHT22;20065;48.380;10.892;2022-09-03T10:43:03;18.80;99.90
33741;DHT22;20065;48.380;10.892;2022-09-03T10:46:09;18.90;99.90
33741;DHT22;20065;48.380;10.892;2022-09-03T10:59:09;19.40;99.90
33741;DHT22;20065;48.380;10.892;2022-09-03T11:05:27;20.00;99.90
33741;DHT22;20065;48.380;10.892;2022-09-03T11:08:20;19.70;99.90
33741;DHT22;20065;48.380;10.892;2022-09-03T11:11:24;19.30;99.90
33741;DHT22;20065;48.380;10.892;2022-09-03T11:14:39;19.40;99.90
33741;DHT22;20065;48.380;10.892;2022-09-03T11:17:33;19.50;99.90
33741;DHT22;20065;48.380;10.892;2022-09-03T11:20:23;19.80;99.90
33741;DHT22;20065;48.380;10.892;2022-09-03T11:23:10;19.80;99.90
33741;DHT22;20065;48.380;10.892;2022-09-03T11:26:03;20.10;99.90
33741;DHT22;20065;48.380;10.892;2022-09-03T11:28:57;20.60;99.90
33741;DHT22;20065;48.380;10.892;2022-09-03T11:34:46;21.10;99.90
33741;DHT22;20065;48.380;10.892;2022-09-03T11:37:47;21.70;99.90
33741;DHT22;20065;48.380;10.892;2022-09-03T11:40:42;22.40;99.90
33741;DHT22;20065;48.380;10.892;2022-09-03T11:43:42;22.10;99.90
33741;DHT22;20065;48.380;10.892;2022-09-03T11:46:29;21.70;99.90
33741;DHT22;20065;48.380;10.892;2022-09-03T11:49:31;21.70;99.90
33741;DHT22;20065;48.380;10.892;2022-09-03T11:52:28;22.00;99.90
33741;DHT22;20065;48.380;10.892;2022-09-03T11:55:25;22.10;99.90
33741;DHT22;20065;48.380;10.892;2022-09-03T11:58:28;22.10;99.90
33741;DHT22;20065;48.380;10.892;2022-09-03T12:01:16;22.50;99.90
33741;DHT22;20065;48.380;10.892;2022-09-03T12:04:06;22.70;99.90
33741;DHT22;20065;48.380;10.892;2022-09-03T12:16:36;22.40;99.90
33741;DHT22;20065;48.380;10.892;2022-09-03T12:19:49;22.60;99.90
33741;DHT22;20065;48.380;10.892;2022-09-03T12:22:36;23.40;99.90
33741;DHT22;20065;48.380;10.892;2022-09-03T12:25:26;23.40;99.90
33741;DHT22;20065;48.380;10.892;2022-09-03T12:28:16;23.10;99.90
33741;DHT22;20065;48.380;10.892;2022-09-03T12:31:22;23.60;99.90
33741;DHT22;20065;48.380;10.892;2022-09-03T12:34:13;23.30;99.90
33741;DHT22;20065;48.380;10.892;2022-09-03T12:37:00;24.00;99.90
33741;DHT22;20065;48.380;10.892;2022-09-03T12:39:53;23.90;99.90
33741;DHT22;20065;48.380;10.892;2022-09-03T12:42:41;23.50;99.90
33741;DHT22;20065;48.380;10.892;2022-09-03T12:45:27;23.20;99.90
33741;DHT22;20065;48.380;10.892;2022-09-03T12:48:18;23.20;99.90
33741;DHT22;20065;48.380;10.892;2022-09-03T12:51:04;23.30;99.90
33741;DHT22;20065;48.380;10.892;2022-09-03T12:53:51;23.00;99.90
33741;DHT22;20065;48.380;10.892;2022-09-03T12:56:39;22.30;99.90
33741;DHT22;20065;48.380;10.892;2022-09-03T12:59:27;22.50;99.90
33741;DHT22;20065;48.380;10.892;2022-09-03T13:02:27;22.20;99.90
33741;DHT22;20065;48.380;10.892;2022-09-03T13:05:18;22.00;99.90
33741;DHT22;20065;48.380;10.892;2022-09-03T13:08:06;21.90;99.90
33741;DHT22;20065;48.380;10.892;2022-09-03T13:10:58;21.60;99.90
33741;DHT22;20065;48.380;10.892;2022-09-03T13:14:10;21.70;99.90
33741;DHT22;20065;48.380;10.892;2022-09-03T13:17:13;21.70;99.90
33741;DHT22;20065;48.380;10.892;2022-09-03T13:26:07;21.50;99.90
33741;DHT22;20065;48.380;10.892;2022-09-03T13:35:37;17.90;99.90
33741;DHT22;20065;48.380;10.892;2022-09-03T13:38:34;17.00;99.90
33741;DHT22;20065;48.380;10.892;2022-09-03T13:41:37;16.70;99.90
33741;DHT22;20065;48.380;10.892;2022-09-03T13:44:48;16.60;99.90
33741;DHT22;20065;48.380;10.892;2022-09-03T13:47:42;16.60;99.90
33741;DHT22;20065;48.380;10.892;2022-09-03T13:51:02;16.80;99.90
33741;DHT22;20065;48.380;10.892;2022-09-03T13:54:06;17.00;99.90
33741;DHT22;20065;48.380;10.892;2022-09-03T14:00:30;17.40;99.90
33741;DHT22;20065;48.380;10.892;2022-09-03T14:06:45;17.40;99.90
33741;DHT22;20065;48.380;10.892;2022-09-03T14:09:50;17.20;99.90
33741;DHT22;20065;48.380;10.892;2022-09-03T14:20:19;17.30;99.90
33741;DHT22;20065;48.380;10.892;2022-09-03T14:26:04;17.30;99.90
33741;DHT22;20065;48.380;10.892;2022-09-03T14:32:04;17.50;99.90
33741;DHT22;20065;48.380;10.892;2022-09-03T14:35:12;17.50;99.90
33741;DHT22;20065;48.380;10.892;2022-09-03T14:54:31;17.90;99.90
33741;DHT22;20065;48.380;10.892;2022-09-03T14:58:24;18.00;99.90
33741;DHT22;20065;48.380;10.892;2022-09-03T15:10:16;18.60;99.90
33741;DHT22;20065;48.380;10.892;2022-09-03T15:13:17;18.30;99.90
33741;DHT22;20065;48.380;10.892;2022-09-03T15:23:10;18.00;99.90
33741;DHT22;20065;48.380;10.892;2022-09-03T15:32:19;17.50;99.90
33741;DHT22;20065;48.380;10.892;2022-09-03T15:35:49;17.30;99.90
33741;DHT22;20065;48.380;10.892;2022-09-03T15:44:19;17.70;99.90
33741;DHT22;20065;48.380;10.892;2022-09-03T15:47:08;17.70;99.90
33741;DHT22;20065;48.380;10.892;2022-09-03T15:50:00;17.80;99.90
33741;DHT22;20065;48.380;10.892;2022-09-03T15:53:04;18.10;99.90
33741;DHT22;20065;48.380;10.892;2022-09-03T15:59:16;17.90;99.90
33741;DHT22;20065;48.380;10.892;2022-09-03T16:05:07;18.20;99.90
33741;DHT22;20065;48.380;10.892;2022-09-03T16:08:21;18.30;99.90
33741;DHT22;20065;48.380;10.892;2022-09-03T16:14:29;18.00;99.90
33741;DHT22;20065;48.380;10.892;2022-09-03T16:17:33;18.20;99.90
33741;DHT22;20065;48.380;10.892;2022-09-03T16:23:22;18.00;99.90
33741;DHT22;20065;48.380;10.892;2022-09-03T16:26:34;17.90;99.90
33741;DHT22;20065;48.380;10.892;2022-09-03T16:29:27;17.90;99.90
33741;DHT22;20065;48.380;10.892;2022-09-03T16:33:11;17.90;99.90
33741;DHT22;20065;48.380;10.892;2022-09-03T16:38:33;17.80;99.90
33741;DHT22;20065;48.380;10.892;2022-09-03T16:44:30;17.80;99.90
33741;DHT22;20065;48.380;10.892;2022-09-03T16:50:37;18.00;99.90
33741;DHT22;20065;48.380;10.892;2022-09-03T16:53:45;18.00;99.90
33741;DHT22;20065;48.380;10.892;2022-09-03T16:57:01;18.00;99.90
33741;DHT22;20065;48.380;10.892;2022-09-03T17:00:14;18.40;99.90
33741;DHT22;20065;48.380;10.892;2022-09-03T17:03:43;18.40;99.90
33741;DHT22;20065;48.380;10.892;2022-09-03T17:09:50;18.30;99.90
33741;DHT22;20065;48.380;10.892;2022-09-03T17:24:45;18.50;99.90
33741;DHT22;20065;48.380;10.892;2022-09-03T17:40:40;18.40;99.90
33741;DHT22;20065;48.380;10.892;2022-09-03T17:47:26;18.00;99.90
33741;DHT22;20065;48.380;10.892;2022-09-03T17:52:59;17.80;99.90
33741;DHT22;20065;48.380;10.892;2022-09-03T17:56:03;17.70;99.90
33741;DHT22;20065;48.380;10.892;2022-09-03T17:58:54;17.70;99.90
33741;DHT22;20065;48.380;10.892;2022-09-03T18:01:57;17.50;99.90
33741;DHT22;20065;48.380;10.892;2022-09-03T18:04:46;17.50;99.90
33741;DHT22;20065;48.380;10.892;2022-09-03T18:08:02;17.50;99.90
33741;DHT22;20065;48.380;10.892;2022-09-03T18:11:13;17.50;99.90
33741;DHT22;20065;48.380;10.892;2022-09-03T18:14:21;17.50;99.90
33741;DHT22;20065;48.380;10.892;2022-09-03T18:17:16;17.50;99.90
33741;DHT22;20065;48.380;10.892;2022-09-03T18:20:10;17.50;99.90
33741;DHT22;20065;48.380;10.892;2022-09-03T18:27:49;17.40;99.90
33741;DHT22;20065;48.380;10.892;2022-09-03T18:30:28;17.30;99.90
33741;DHT22;20065;48.380;10.892;2022-09-03T18:33:33;17.30;99.90
33741;DHT22;20065;48.380;10.892;2022-09-03T18:36:38;17.30;99.90
33741;DHT22;20065;48.380;10.892;2022-09-03T18:39:44;17.30;99.90
33741;DHT22;20065;48.380;10.892;2022-09-03T18:43:29;17.20;99.90
33741;DHT22;20065;48.380;10.892;2022-09-03T18:46:46;17.20;99.90
33741;DHT22;20065;48.380;10.892;2022-09-03T18:50:25;17.30;99.90
33741;DHT22;20065;48.380;10.892;2022-09-03T18:56:50;17.50;99.90
33741;DHT22;20065;48.380;10.892;2022-09-03T19:00:25;17.40;99.90
33741;DHT22;20065;48.380;10.892;2022-09-03T19:07:17;17.40;99.90
33741;DHT22;20065;48.380;10.892;2022-09-03T19:10:32;17.40;99.90
33741;DHT22;20065;48.380;10.892;2022-09-03T19:13:41;17.30;99.90
33741;DHT22;20065;48.380;10.892;2022-09-03T19:17:05;17.30;99.90
33741;DHT22;20065;48.380;10.892;2022-09-03T19:20:28;17.30;99.90
33741;DHT22;20065;48.380;10.892;2022-09-03T19:23:33;17.10;99.90
33741;DHT22;20065;48.380;10.892;2022-09-03T19:30:13;17.10;99.90
33741;DHT22;20065;48.380;10.892;2022-09-03T19:36:59;17.10;99.90
33741;DHT22;20065;48.380;10.892;2022-09-03T19:47:09;16.90;99.90
33741;DHT22;20065;48.380;10.892;2022-09-03T19:50:22;16.90;99.90
33741;DHT22;20065;48.380;10.892;2022-09-03T19:53:28;17.00;99.90
33741;DHT22;20065;48.380;10.892;2022-09-03T19:56:36;16.90;99.90
33741;DHT22;20065;48.380;10.892;2022-09-03T19:59:47;16.90;99.90
33741;DHT22;20065;48.380;10.892;2022-09-03T20:02:59;16.80;99.90
33741;DHT22;20065;48.380;10.892;2022-09-03T20:06:05;16.80;99.90
33741;DHT22;20065;48.380;10.892;2022-09-03T20:09:12;16.70;99.90
33741;DHT22;20065;48.380;10.892;2022-09-03T20:12:22;16.60;99.90
33741;DHT22;20065;48.380;10.892;2022-09-03T20:15:10;16.50;99.90
33741;DHT22;20065;48.380;10.892;2022-09-03T20:18:02;16.50;99.90
33741;DHT22;20065;48.380;10.892;2022-09-03T20:20:59;16.50;99.90
33741;DHT22;20065;48.380;10.892;2022-09-03T20:30:05;16.50;99.90
33741;DHT22;20065;48.380;10.892;2022-09-03T20:39:46;16.40;99.90
33741;DHT22;20065;48.380;10.892;2022-09-03T20:46:53;16.40;99.90
33741;DHT22;20065;48.380;10.892;2022-09-03T20:49:35;16.40;99.90
33741;DHT22;20065;48.380;10.892;2022-09-03T20:52:41;16.40;99.90
33741;DHT22;20065;48.380;10.892;2022-09-03T20:55:38;16.30;99.90
33741;DHT22;20065;48.380;10.892;2022-09-03T20:59:09;16.40;99.90
33741;DHT22;20065;48.380;10.892;2022-09-03T21:07:54;16.30;99.90
33741;DHT22;20065;48.380;10.892;2022-09-03T21:10:53;16.20;99.90
33741;DHT22;20065;48.380;10.892;2022-09-03T21:17:04;16.20;99.90
33741;DHT22;20065;48.380;10.892;2022-09-03T21:23:24;16.20;99.90
33741;DHT22;20065;48.380;10.892;2022-09-03T21:26:24;16.20;99.90
33741;DHT22;20065;48.380;10.892;2022-09-03T21:29:25;16.20;99.90
33741;DHT22;20065;48.380;10.892;2022-09-03T21:32:15;16.40;99.90
33741;DHT22;20065;48.380;10.892;2022-09-03T21:38:17;16.10;99.90
33741;DHT22;20065;48.380;10.892;2022-09-03T21:41:16;16.00;99.90
33741;DHT22;20065;48.380;10.892;2022-09-03T21:47:27;15.90;99.90
33741;DHT22;20065;48.380;10.892;2022-09-03T21:50:19;15.90;99.90
33741;DHT22;20065;48.380;10.892;2022-09-03T22:02:40;15.90;99.90
33741;DHT22;20065;48.380;10.892;2022-09-03T22:05:40;15.80;99.90
33741;DHT22;20065;48.380;10.892;2022-09-03T22:08:42;15.70;99.90
33741;DHT22;20065;48.380;10.892;2022-09-03T22:11:43;15.60;99.90
33741;DHT22;20065;48.380;10.892;2022-09-03T22:14:38;15.70;99.90
33741;DHT22;20065;48.380;10.892;2022-09-03T22:17:36;15.70;99.90
33741;DHT22;20065;48.380;10.892;2022-09-03T22:20:28;15.70;99.90
33741;DHT22;20065;48.380;10.892;2022-09-03T22:23:19;15.80;99.90
33741;DHT22;20065;48.380;10.892;2022-09-03T22:26:21;15.80;99.90
33741;DHT22;20065;48.380;10.892;2022-09-03T22:51:15;15.50;99.90
33741;DHT22;20065;48.380;10.892;2022-09-03T22:57:18;15.40;99.90
33741;DHT22;20065;48.380;10.892;2022-09-03T23:00:08;15.40;99.90
33741;DHT22;20065;48.380;10.892;2022-09-03T23:03:02;15.40;99.90
33741;DHT22;20065;48.380;10.892;2022-09-03T23:06:01;15.40;99.90
33741;DHT22;20065;48.380;10.892;2022-09-03T23:08:53;15.30;99.90
33741;DHT22;20065;48.380;10.892;2022-09-03T23:11:49;15.30;99.90
33741;DHT22;20065;48.380;10.892;2022-09-03T23:14:45;15.30;99.90
33741;DHT22;20065;48.380;10.892;2022-09-03T23:17:50;15.90;99.90
33741;DHT22;20065;48.380;10.892;2022-09-03T23:21:06;15.30;99.90
33741;DHT22;20065;48.380;10.892;2022-09-03T23:24:04;15.40;99.90
33741;DHT22;20065;48.380;10.892;2022-09-03T23:26:53;15.30;99.90
33741;DHT22;20065;48.380;10.892;2022-09-03T23:29:57;15.30;99.90